sensor_id;sensor_type;location;lat;lon;timestamp;temperature;humidity
3678;DHT22;1855;50.934;6.958;2022-12-18T00:00:08;-4.00;91.70
3678;DHT22;1855;50.934;6.958;2022-12-18T00:02:34;-4.00;91.70
3678;DHT22;1855;50.934;6.958;2022-12-18T00:05:01;-4.00;91.60
3678;DHT22;1855;50.934;6.958;2022-12-18T00:07:28;-4.00;91.70
3678;DHT22;1855;50.934;6.958;2022-12-18T00:09:54;-4.00;91.70
3678;DHT22;1855;50.934;6.958;2022-12-18T00:12:21;-4.00;91.80
3678;DHT22;1855;50.934;6.958;2022-12-18T00:14:48;-4.00;91.80
3678;DHT22;1855;50.934;6.958;2022-12-18T00:17:16;-4.00;91.70
3678;DHT22;1855;50.934;6.958;2022-12-18T00:19:43;-4.00;91.80
3678;DHT22;1855;50.934;6.958;2022-12-18T00:22:09;-4.00;92.00
3678;DHT22;1855;50.934;6.958;2022-12-18T00:24:36;-4.00;92.20
3678;DHT22;1855;50.934;6.958;2022-12-18T00:27:03;-4.00;92.20
3678;DHT22;1855;50.934;6.958;2022-12-18T00:29:30;-4.00;92.10
3678;DHT22;1855;50.934;6.958;2022-12-18T00:31:56;-4.00;91.90
3678;DHT22;1855;50.934;6.958;2022-12-18T00:34:24;-4.00;92.00
3678;DHT22;1855;50.934;6.958;2022-12-18T00:36:51;-4.00;92.00
3678;DHT22;1855;50.934;6.958;2022-12-18T00:39:18;-4.00;92.10
3678;DHT22;1855;50.934;6.958;2022-12-18T00:41:45;-4.00;92.10
3678;DHT22;1855;50.934;6.958;2022-12-18T00:44:29;-4.00;92.00
3678;DHT22;1855;50.934;6.958;2022-12-18T00:46:56;-4.00;92.10
3678;DHT22;1855;50.934;6.958;2022-12-18T00:49:22;-4.00;92.00
3678;DHT22;1855;50.934;6.958;2022-12-18T00:51:50;-4.00;92.00
3678;DHT22;1855;50.934;6.958;2022-12-18T00:54:17;-4.00;92.00
3678;DHT22;1855;50.934;6.958;2022-12-18T00:56:44;-4.00;91.90
3678;DHT22;1855;50.934;6.958;2022-12-18T00:59:11;-4.00;91.90
3678;DHT22;1855;50.934;6.958;2022-12-18T01:01:37;-4.00;91.90
3678;DHT22;1855;50.934;6.958;2022-12-18T01:04:04;-4.00;91.90
3678;DHT22;1855;50.934;6.958;2022-12-18T01:06:31;-4.00;92.00
3678;DHT22;1855;50.934;6.958;2022-12-18T01:08:59;-4.00;91.80
3678;DHT22;1855;50.934;6.958;2022-12-18T01:11:26;-4.00;91.70
3678;DHT22;1855;50.934;6.958;2022-12-18T01:13:53;-4.10;91.60
3678;DHT22;1855;50.934;6.958;2022-12-18T01:16:21;-4.10;91.60
3678;DHT22;1855;50.934;6.958;2022-12-18T01:18:51;-4.10;91.70
3678;DHT22;1855;50.934;6.958;2022-12-18T01:21:20;-4.10;91.80
3678;DHT22;1855;50.934;6.958;2022-12-18T01:23:51;-4.10;91.90
3678;DHT22;1855;50.934;6.958;2022-12-18T01:26:20;-4.10;91.90
3678;DHT22;1855;50.934;6.958;2022-12-18T01:28:46;-4.10;91.90
3678;DHT22;1855;50.934;6.958;2022-12-18T01:31:16;-4.10;91.70
3678;DHT22;1855;50.934;6.958;2022-12-18T01:33:43;-4.10;91.70
3678;DHT22;1855;50.934;6.958;2022-12-18T01:36:16;-4.00;91.60
3678;DHT22;1855;50.934;6.958;2022-12-18T01:38:43;-4.10;91.50
3678;DHT22;1855;50.934;6.958;2022-12-18T01:41:10;-4.10;91.50
3678;DHT22;1855;50.934;6.958;2022-12-18T01:43:59;-4.10;91.50
3678;DHT22;1855;50.934;6.958;2022-12-18T01:46:27;-4.10;91.60
3678;DHT22;1855;50.934;6.958;2022-12-18T01:48:56;-4.20;91.80
3678;DHT22;1855;50.934;6.958;2022-12-18T01:51:24;-4.20;92.00
3678;DHT22;1855;50.934;6.958;2022-12-18T01:53:52;-4.20;92.00
3678;DHT22;1855;50.934;6.958;2022-12-18T01:56:21;-4.20;91.70
3678;DHT22;1855;50.934;6.958;2022-12-18T01:58:54;-4.10;91.50
3678;DHT22;1855;50.934;6.958;2022-12-18T02:01:23;-4.10;91.40
3678;DHT22;1855;50.934;6.958;2022-12-18T02:03:51;-4.10;91.30
3678;DHT22;1855;50.934;6.958;2022-12-18T02:06:23;-4.10;91.40
3678;DHT22;1855;50.934;6.958;2022-12-18T02:08:59;-4.10;91.50
3678;DHT22;1855;50.934;6.958;2022-12-18T02:11:39;-4.10;91.40
3678;DHT22;1855;50.934;6.958;2022-12-18T02:14:17;-4.10;91.30
3678;DHT22;1855;50.934;6.958;2022-12-18T02:16:52;-4.10;91.30
3678;DHT22;1855;50.934;6.958;2022-12-18T02:19:39;-4.10;91.30
3678;DHT22;1855;50.934;6.958;2022-12-18T02:22:21;-4.10;91.30
3678;DHT22;1855;50.934;6.958;2022-12-18T02:25:00;-4.00;91.30
3678;DHT22;1855;50.934;6.958;2022-12-18T02:27:34;-4.10;91.40
3678;DHT22;1855;50.934;6.958;2022-12-18T02:30:04;-4.10;91.50
3678;DHT22;1855;50.934;6.958;2022-12-18T02:32:33;-4.10;91.30
3678;DHT22;1855;50.934;6.958;2022-12-18T02:35:03;-4.00;91.20
3678;DHT22;1855;50.934;6.958;2022-12-18T02:37:32;-4.10;91.10
3678;DHT22;1855;50.934;6.958;2022-12-18T02:40:00;-4.00;91.00
3678;DHT22;1855;50.934;6.958;2022-12-18T02:42:28;-4.00;91.00
3678;DHT22;1855;50.934;6.958;2022-12-18T02:44:56;-4.00;91.00
3678;DHT22;1855;50.934;6.958;2022-12-18T02:47:26;-4.00;91.10
3678;DHT22;1855;50.934;6.958;2022-12-18T02:49:59;-4.00;91.00
3678;DHT22;1855;50.934;6.958;2022-12-18T02:52:34;-4.00;90.90
3678;DHT22;1855;50.934;6.958;2022-12-18T02:55:12;-4.10;90.90
3678;DHT22;1855;50.934;6.958;2022-12-18T02:57:44;-4.10;91.20
3678;DHT22;1855;50.934;6.958;2022-12-18T03:00:16;-4.10;91.10
3678;DHT22;1855;50.934;6.958;2022-12-18T03:02:47;-4.10;91.10
3678;DHT22;1855;50.934;6.958;2022-12-18T03:05:16;-4.10;90.90
3678;DHT22;1855;50.934;6.958;2022-12-18T03:07:48;-4.10;90.60
3678;DHT22;1855;50.934;6.958;2022-12-18T03:10:19;-4.10;90.90
3678;DHT22;1855;50.934;6.958;2022-12-18T03:12:51;-4.10;90.90
3678;DHT22;1855;50.934;6.958;2022-12-18T03:15:22;-4.10;90.90
3678;DHT22;1855;50.934;6.958;2022-12-18T03:17:52;-4.10;90.90
3678;DHT22;1855;50.934;6.958;2022-12-18T03:20:23;-4.10;90.70
3678;DHT22;1855;50.934;6.958;2022-12-18T03:22:55;-4.10;90.70
3678;DHT22;1855;50.934;6.958;2022-12-18T03:25:24;-4.10;90.60
3678;DHT22;1855;50.934;6.958;2022-12-18T03:27:55;-4.10;90.70
3678;DHT22;1855;50.934;6.958;2022-12-18T03:30:26;-4.10;90.80
3678;DHT22;1855;50.934;6.958;2022-12-18T03:33:03;-4.10;90.90
3678;DHT22;1855;50.934;6.958;2022-12-18T03:35:34;-4.10;90.90
3678;DHT22;1855;50.934;6.958;2022-12-18T03:38:02;-4.10;91.00
3678;DHT22;1855;50.934;6.958;2022-12-18T03:40:35;-4.10;91.10
3678;DHT22;1855;50.934;6.958;2022-12-18T03:43:10;-4.10;91.00
3678;DHT22;1855;50.934;6.958;2022-12-18T03:45:50;-4.10;91.00
3678;DHT22;1855;50.934;6.958;2022-12-18T03:48:23;-4.10;91.10
3678;DHT22;1855;50.934;6.958;2022-12-18T03:50:56;-4.10;91.10
3678;DHT22;1855;50.934;6.958;2022-12-18T03:53:29;-4.10;91.40
3678;DHT22;1855;50.934;6.958;2022-12-18T03:56:00;-4.00;90.90
3678;DHT22;1855;50.934;6.958;2022-12-18T03:58:28;-4.00;90.90
3678;DHT22;1855;50.934;6.958;2022-12-18T04:01:00;-4.10;90.90
3678;DHT22;1855;50.934;6.958;2022-12-18T04:03:29;-4.10;90.80
3678;DHT22;1855;50.934;6.958;2022-12-18T04:05:59;-4.10;90.80
3678;DHT22;1855;50.934;6.958;2022-12-18T04:08:26;-4.10;90.70
3678;DHT22;1855;50.934;6.958;2022-12-18T04:10:54;-4.10;90.60
3678;DHT22;1855;50.934;6.958;2022-12-18T04:13:24;-4.10;90.80
3678;DHT22;1855;50.934;6.958;2022-12-18T04:15:51;-4.20;90.90
3678;DHT22;1855;50.934;6.958;2022-12-18T04:18:19;-4.20;90.90
3678;DHT22;1855;50.934;6.958;2022-12-18T04:20:46;-4.20;90.90
3678;DHT22;1855;50.934;6.958;2022-12-18T04:23:13;-4.20;90.80
3678;DHT22;1855;50.934;6.958;2022-12-18T04:25:40;-4.20;90.80
3678;DHT22;1855;50.934;6.958;2022-12-18T04:28:07;-4.20;90.80
3678;DHT22;1855;50.934;6.958;2022-12-18T04:30:33;-4.20;90.80
3678;DHT22;1855;50.934;6.958;2022-12-18T04:33:00;-4.20;90.80
3678;DHT22;1855;50.934;6.958;2022-12-18T04:35:28;-4.20;90.80
3678;DHT22;1855;50.934;6.958;2022-12-18T04:37:55;-4.20;90.80
3678;DHT22;1855;50.934;6.958;2022-12-18T04:40:22;-4.30;90.90
3678;DHT22;1855;50.934;6.958;2022-12-18T04:42:48;-4.30;90.80
3678;DHT22;1855;50.934;6.958;2022-12-18T04:45:15;-4.30;90.80
3678;DHT22;1855;50.934;6.958;2022-12-18T04:47:42;-4.30;90.80
3678;DHT22;1855;50.934;6.958;2022-12-18T04:50:09;-4.40;90.90
3678;DHT22;1855;50.934;6.958;2022-12-18T04:52:37;-4.40;91.00
3678;DHT22;1855;50.934;6.958;2022-12-18T04:55:05;-4.40;91.10
3678;DHT22;1855;50.934;6.958;2022-12-18T04:57:31;-4.40;91.10
3678;DHT22;1855;50.934;6.958;2022-12-18T04:59:58;-4.40;91.20
3678;DHT22;1855;50.934;6.958;2022-12-18T05:02:25;-4.40;91.20
3678;DHT22;1855;50.934;6.958;2022-12-18T05:04:52;-4.40;91.30
3678;DHT22;1855;50.934;6.958;2022-12-18T05:07:19;-4.40;91.30
3678;DHT22;1855;50.934;6.958;2022-12-18T05:09:47;-4.40;91.30
3678;DHT22;1855;50.934;6.958;2022-12-18T05:12:13;-4.40;91.40
3678;DHT22;1855;50.934;6.958;2022-12-18T05:14:40;-4.40;91.40
3678;DHT22;1855;50.934;6.958;2022-12-18T05:17:07;-4.40;91.60
3678;DHT22;1855;50.934;6.958;2022-12-18T05:19:34;-4.40;91.50
3678;DHT22;1855;50.934;6.958;2022-12-18T05:22:01;-4.30;91.50
3678;DHT22;1855;50.934;6.958;2022-12-18T05:24:27;-4.30;91.60
3678;DHT22;1855;50.934;6.958;2022-12-18T05:26:55;-4.30;91.50
3678;DHT22;1855;50.934;6.958;2022-12-18T05:29:22;-4.30;91.60
3678;DHT22;1855;50.934;6.958;2022-12-18T05:31:49;-4.30;91.60
3678;DHT22;1855;50.934;6.958;2022-12-18T05:34:16;-4.30;91.60
3678;DHT22;1855;50.934;6.958;2022-12-18T05:36:43;-4.30;91.60
3678;DHT22;1855;50.934;6.958;2022-12-18T05:39:10;-4.30;91.50
3678;DHT22;1855;50.934;6.958;2022-12-18T05:41:36;-4.20;91.50
3678;DHT22;1855;50.934;6.958;2022-12-18T05:44:04;-4.20;91.40
3678;DHT22;1855;50.934;6.958;2022-12-18T05:46:31;-4.20;91.40
3678;DHT22;1855;50.934;6.958;2022-12-18T05:48:59;-4.20;91.40
3678;DHT22;1855;50.934;6.958;2022-12-18T05:51:27;-4.20;91.40
3678;DHT22;1855;50.934;6.958;2022-12-18T05:53:54;-4.20;91.40
3678;DHT22;1855;50.934;6.958;2022-12-18T05:56:22;-4.20;91.50
3678;DHT22;1855;50.934;6.958;2022-12-18T05:58:51;-4.20;91.60
3678;DHT22;1855;50.934;6.958;2022-12-18T06:01:22;-4.10;91.70
3678;DHT22;1855;50.934;6.958;2022-12-18T06:03:49;-4.10;91.70
3678;DHT22;1855;50.934;6.958;2022-12-18T06:06:18;-4.10;91.60
3678;DHT22;1855;50.934;6.958;2022-12-18T06:08:45;-4.10;91.60
3678;DHT22;1855;50.934;6.958;2022-12-18T06:11:13;-4.00;91.60
3678;DHT22;1855;50.934;6.958;2022-12-18T06:13:40;-4.00;91.50
3678;DHT22;1855;50.934;6.958;2022-12-18T06:16:07;-4.00;91.40
3678;DHT22;1855;50.934;6.958;2022-12-18T06:18:35;-4.10;91.30
3678;DHT22;1855;50.934;6.958;2022-12-18T06:21:03;-4.10;91.20
3678;DHT22;1855;50.934;6.958;2022-12-18T06:23:30;-4.10;91.30
3678;DHT22;1855;50.934;6.958;2022-12-18T06:25:57;-4.10;91.40
3678;DHT22;1855;50.934;6.958;2022-12-18T06:28:24;-4.10;91.40
3678;DHT22;1855;50.934;6.958;2022-12-18T06:30:50;-4.10;91.30
3678;DHT22;1855;50.934;6.958;2022-12-18T06:33:18;-4.20;91.30
3678;DHT22;1855;50.934;6.958;2022-12-18T06:35:46;-4.20;91.40
3678;DHT22;1855;50.934;6.958;2022-12-18T06:38:13;-4.20;91.30
3678;DHT22;1855;50.934;6.958;2022-12-18T06:40:39;-4.20;91.20
3678;DHT22;1855;50.934;6.958;2022-12-18T06:43:06;-4.30;91.30
3678;DHT22;1855;50.934;6.958;2022-12-18T06:45:33;-4.30;91.30
3678;DHT22;1855;50.934;6.958;2022-12-18T06:48:00;-4.30;91.40
3678;DHT22;1855;50.934;6.958;2022-12-18T06:50:27;-4.20;91.40
3678;DHT22;1855;50.934;6.958;2022-12-18T06:52:56;-4.30;91.40
3678;DHT22;1855;50.934;6.958;2022-12-18T06:55:22;-4.30;91.40
3678;DHT22;1855;50.934;6.958;2022-12-18T06:57:49;-4.40;91.60
3678;DHT22;1855;50.934;6.958;2022-12-18T07:00:16;-4.40;91.70
3678;DHT22;1855;50.934;6.958;2022-12-18T07:02:43;-4.40;91.70
3678;DHT22;1855;50.934;6.958;2022-12-18T07:05:10;-4.50;91.80
3678;DHT22;1855;50.934;6.958;2022-12-18T07:07:37;-4.50;91.90
3678;DHT22;1855;50.934;6.958;2022-12-18T07:10:05;-4.50;91.80
3678;DHT22;1855;50.934;6.958;2022-12-18T07:12:32;-4.50;91.60
3678;DHT22;1855;50.934;6.958;2022-12-18T07:14:59;-4.60;91.50
3678;DHT22;1855;50.934;6.958;2022-12-18T07:17:25;-4.60;91.60
3678;DHT22;1855;50.934;6.958;2022-12-18T07:19:52;-4.70;91.80
3678;DHT22;1855;50.934;6.958;2022-12-18T07:22:19;-4.70;91.90
3678;DHT22;1855;50.934;6.958;2022-12-18T07:24:46;-4.70;91.90
3678;DHT22;1855;50.934;6.958;2022-12-18T07:27:14;-4.70;92.00
3678;DHT22;1855;50.934;6.958;2022-12-18T07:29:40;-4.70;92.00
3678;DHT22;1855;50.934;6.958;2022-12-18T07:32:07;-4.70;92.00
3678;DHT22;1855;50.934;6.958;2022-12-18T07:34:34;-4.80;92.10
3678;DHT22;1855;50.934;6.958;2022-12-18T07:37:01;-4.80;92.50
3678;DHT22;1855;50.934;6.958;2022-12-18T07:39:27;-4.70;92.30
3678;DHT22;1855;50.934;6.958;2022-12-18T07:41:54;-4.70;92.30
3678;DHT22;1855;50.934;6.958;2022-12-18T07:44:40;-4.70;92.30
3678;DHT22;1855;50.934;6.958;2022-12-18T07:47:06;-4.70;92.30
3678;DHT22;1855;50.934;6.958;2022-12-18T07:49:33;-4.70;92.40
3678;DHT22;1855;50.934;6.958;2022-12-18T07:52:00;-4.70;92.40
3678;DHT22;1855;50.934;6.958;2022-12-18T07:54:27;-4.70;92.60
3678;DHT22;1855;50.934;6.958;2022-12-18T07:56:54;-4.70;92.60
3678;DHT22;1855;50.934;6.958;2022-12-18T07:59:21;-4.60;92.60
3678;DHT22;1855;50.934;6.958;2022-12-18T08:01:49;-4.60;92.50
3678;DHT22;1855;50.934;6.958;2022-12-18T08:04:15;-4.50;92.40
3678;DHT22;1855;50.934;6.958;2022-12-18T08:06:42;-4.50;92.30
3678;DHT22;1855;50.934;6.958;2022-12-18T08:09:10;-4.50;92.40
3678;DHT22;1855;50.934;6.958;2022-12-18T08:11:36;-4.40;92.30
3678;DHT22;1855;50.934;6.958;2022-12-18T08:14:03;-4.30;92.30
3678;DHT22;1855;50.934;6.958;2022-12-18T08:16:30;-4.20;92.10
3678;DHT22;1855;50.934;6.958;2022-12-18T08:18:58;-4.20;92.00
3678;DHT22;1855;50.934;6.958;2022-12-18T08:21:27;-4.10;92.00
3678;DHT22;1855;50.934;6.958;2022-12-18T08:23:56;-4.00;91.90
3678;DHT22;1855;50.934;6.958;2022-12-18T08:26:24;-3.80;92.20
3678;DHT22;1855;50.934;6.958;2022-12-18T08:28:53;-3.70;91.70
3678;DHT22;1855;50.934;6.958;2022-12-18T08:31:20;-3.50;91.20
3678;DHT22;1855;50.934;6.958;2022-12-18T08:33:49;-3.30;90.30
3678;DHT22;1855;50.934;6.958;2022-12-18T08:36:17;-3.30;90.00
3678;DHT22;1855;50.934;6.958;2022-12-18T08:38:44;-3.20;89.60
3678;DHT22;1855;50.934;6.958;2022-12-18T08:41:12;-3.20;89.00
3678;DHT22;1855;50.934;6.958;2022-12-18T08:43:40;-3.10;89.20
3678;DHT22;1855;50.934;6.958;2022-12-18T08:46:26;-3.00;89.00
3678;DHT22;1855;50.934;6.958;2022-12-18T08:48:54;-2.90;87.80
3678;DHT22;1855;50.934;6.958;2022-12-18T08:51:22;-2.80;87.50
3678;DHT22;1855;50.934;6.958;2022-12-18T08:53:49;-2.80;87.40
3678;DHT22;1855;50.934;6.958;2022-12-18T08:56:16;-2.60;87.30
3678;DHT22;1855;50.934;6.958;2022-12-18T08:58:43;-2.50;86.30
3678;DHT22;1855;50.934;6.958;2022-12-18T09:01:11;-2.50;85.60
3678;DHT22;1855;50.934;6.958;2022-12-18T09:03:38;-2.30;85.90
3678;DHT22;1855;50.934;6.958;2022-12-18T09:06:05;-2.20;84.60
3678;DHT22;1855;50.934;6.958;2022-12-18T09:08:33;-2.10;83.60
3678;DHT22;1855;50.934;6.958;2022-12-18T09:11:00;-2.10;83.40
3678;DHT22;1855;50.934;6.958;2022-12-18T09:13:27;-2.00;83.90
3678;DHT22;1855;50.934;6.958;2022-12-18T09:15:55;-2.00;82.70
3678;DHT22;1855;50.934;6.958;2022-12-18T09:18:23;-2.00;82.50
3678;DHT22;1855;50.934;6.958;2022-12-18T09:20:50;-2.00;82.80
3678;DHT22;1855;50.934;6.958;2022-12-18T09:23:18;-1.90;82.60
3678;DHT22;1855;50.934;6.958;2022-12-18T09:25:46;-1.90;82.30
3678;DHT22;1855;50.934;6.958;2022-12-18T09:28:14;-1.90;81.70
3678;DHT22;1855;50.934;6.958;2022-12-18T09:30:43;-1.90;82.10
3678;DHT22;1855;50.934;6.958;2022-12-18T09:33:10;-1.70;82.00
3678;DHT22;1855;50.934;6.958;2022-12-18T09:35:37;-1.60;81.50
3678;DHT22;1855;50.934;6.958;2022-12-18T09:38:04;-1.40;80.30
3678;DHT22;1855;50.934;6.958;2022-12-18T09:40:35;-1.40;79.60
3678;DHT22;1855;50.934;6.958;2022-12-18T09:43:04;-1.30;79.90
3678;DHT22;1855;50.934;6.958;2022-12-18T09:45:39;-1.10;80.30
3678;DHT22;1855;50.934;6.958;2022-12-18T09:48:10;-1.00;77.40
3678;DHT22;1855;50.934;6.958;2022-12-18T09:50:42;-1.10;77.50
3678;DHT22;1855;50.934;6.958;2022-12-18T09:53:13;-1.20;77.80
3678;DHT22;1855;50.934;6.958;2022-12-18T09:55:43;-1.10;78.10
3678;DHT22;1855;50.934;6.958;2022-12-18T09:58:16;-1.00;77.60
3678;DHT22;1855;50.934;6.958;2022-12-18T10:00:45;-1.00;76.80
3678;DHT22;1855;50.934;6.958;2022-12-18T10:03:14;-1.00;77.00
3678;DHT22;1855;50.934;6.958;2022-12-18T10:05:48;-1.00;77.10
3678;DHT22;1855;50.934;6.958;2022-12-18T10:08:20;-1.10;77.40
3678;DHT22;1855;50.934;6.958;2022-12-18T10:10:50;-1.10;77.50
3678;DHT22;1855;50.934;6.958;2022-12-18T10:13:29;-1.00;78.20
3678;DHT22;1855;50.934;6.958;2022-12-18T10:16:12;-0.90;77.80
3678;DHT22;1855;50.934;6.958;2022-12-18T10:19:04;-0.90;76.70
3678;DHT22;1855;50.934;6.958;2022-12-18T10:21:39;-0.90;76.60
3678;DHT22;1855;50.934;6.958;2022-12-18T10:24:14;-0.80;77.60
3678;DHT22;1855;50.934;6.958;2022-12-18T10:26:41;-0.80;76.40
3678;DHT22;1855;50.934;6.958;2022-12-18T10:29:13;-0.80;76.40
3678;DHT22;1855;50.934;6.958;2022-12-18T10:31:40;-0.70;76.40
3678;DHT22;1855;50.934;6.958;2022-12-18T10:34:09;-0.60;76.30
3678;DHT22;1855;50.934;6.958;2022-12-18T10:36:37;-0.50;75.70
3678;DHT22;1855;50.934;6.958;2022-12-18T10:39:15;-0.50;74.90
3678;DHT22;1855;50.934;6.958;2022-12-18T10:41:42;-0.50;75.00
3678;DHT22;1855;50.934;6.958;2022-12-18T10:44:28;-0.40;74.80
3678;DHT22;1855;50.934;6.958;2022-12-18T10:47:02;-0.30;75.40
3678;DHT22;1855;50.934;6.958;2022-12-18T10:49:31;-0.20;74.10
3678;DHT22;1855;50.934;6.958;2022-12-18T10:52:07;-0.20;74.30
3678;DHT22;1855;50.934;6.958;2022-12-18T10:54:38;-0.20;73.70
3678;DHT22;1855;50.934;6.958;2022-12-18T10:57:15;-0.20;73.80
3678;DHT22;1855;50.934;6.958;2022-12-18T10:59:52;-0.20;73.50
3678;DHT22;1855;50.934;6.958;2022-12-18T11:02:28;-0.30;73.40
3678;DHT22;1855;50.934;6.958;2022-12-18T11:04:59;-0.30;73.50
3678;DHT22;1855;50.934;6.958;2022-12-18T11:10:28;-0.30;73.20
3678;DHT22;1855;50.934;6.958;2022-12-18T11:12:55;-0.40;73.50
3678;DHT22;1855;50.934;6.958;2022-12-18T11:15:27;-0.40;73.60
3678;DHT22;1855;50.934;6.958;2022-12-18T11:17:56;-0.40;73.90
3678;DHT22;1855;50.934;6.958;2022-12-18T11:20:30;-0.40;73.50
3678;DHT22;1855;50.934;6.958;2022-12-18T11:22:59;-0.40;74.20
3678;DHT22;1855;50.934;6.958;2022-12-18T11:25:27;-0.30;73.20
3678;DHT22;1855;50.934;6.958;2022-12-18T11:27:55;-0.40;74.10
3678;DHT22;1855;50.934;6.958;2022-12-18T11:30:26;-0.30;73.50
3678;DHT22;1855;50.934;6.958;2022-12-18T11:32:56;-0.30;73.80
3678;DHT22;1855;50.934;6.958;2022-12-18T11:35:42;-0.30;73.80
3678;DHT22;1855;50.934;6.958;2022-12-18T11:38:18;-0.30;72.80
3678;DHT22;1855;50.934;6.958;2022-12-18T11:40:52;-0.30;73.30
3678;DHT22;1855;50.934;6.958;2022-12-18T11:43:25;-0.20;73.30
3678;DHT22;1855;50.934;6.958;2022-12-18T11:45:58;-0.30;73.20
3678;DHT22;1855;50.934;6.958;2022-12-18T11:48:27;-0.20;73.00
3678;DHT22;1855;50.934;6.958;2022-12-18T11:50:56;-0.30;73.00
3678;DHT22;1855;50.934;6.958;2022-12-18T11:53:25;-0.30;73.50
3678;DHT22;1855;50.934;6.958;2022-12-18T11:56:04;-0.40;72.80
3678;DHT22;1855;50.934;6.958;2022-12-18T11:58:46;-0.50;74.00
3678;DHT22;1855;50.934;6.958;2022-12-18T12:01:28;-0.50;74.10
3678;DHT22;1855;50.934;6.958;2022-12-18T12:06:55;-0.50;74.20
3678;DHT22;1855;50.934;6.958;2022-12-18T12:09:31;-0.60;74.80
3678;DHT22;1855;50.934;6.958;2022-12-18T12:12:11;-0.60;75.00
3678;DHT22;1855;50.934;6.958;2022-12-18T12:14:48;-0.60;75.20
3678;DHT22;1855;50.934;6.958;2022-12-18T12:17:25;-0.60;75.30
3678;DHT22;1855;50.934;6.958;2022-12-18T12:19:59;-0.60;75.00
3678;DHT22;1855;50.934;6.958;2022-12-18T12:22:33;-0.60;75.20
3678;DHT22;1855;50.934;6.958;2022-12-18T12:25:15;-0.60;74.90
3678;DHT22;1855;50.934;6.958;2022-12-18T12:27:51;-0.70;74.90
3678;DHT22;1855;50.934;6.958;2022-12-18T12:30:22;-0.70;75.30
3678;DHT22;1855;50.934;6.958;2022-12-18T12:33:05;-0.70;75.30
3678;DHT22;1855;50.934;6.958;2022-12-18T12:35:45;-0.70;75.70
3678;DHT22;1855;50.934;6.958;2022-12-18T12:38:16;-0.70;75.60
3678;DHT22;1855;50.934;6.958;2022-12-18T12:40:47;-0.70;75.60
3678;DHT22;1855;50.934;6.958;2022-12-18T12:43:32;-0.60;75.50
3678;DHT22;1855;50.934;6.958;2022-12-18T12:46:03;-0.60;75.00
3678;DHT22;1855;50.934;6.958;2022-12-18T12:48:40;-0.60;75.40
3678;DHT22;1855;50.934;6.958;2022-12-18T12:51:13;-0.60;75.10
3678;DHT22;1855;50.934;6.958;2022-12-18T12:53:42;-0.60;75.10
3678;DHT22;1855;50.934;6.958;2022-12-18T12:56:11;-0.60;74.80
3678;DHT22;1855;50.934;6.958;2022-12-18T12:58:46;-0.60;75.30
3678;DHT22;1855;50.934;6.958;2022-12-18T13:01:20;-0.60;75.30
3678;DHT22;1855;50.934;6.958;2022-12-18T13:03:58;-0.60;75.40
3678;DHT22;1855;50.934;6.958;2022-12-18T13:06:40;-0.50;75.40
3678;DHT22;1855;50.934;6.958;2022-12-18T13:09:09;-0.50;75.50
3678;DHT22;1855;50.934;6.958;2022-12-18T13:11:38;-0.40;75.10
3678;DHT22;1855;50.934;6.958;2022-12-18T13:14:26;-0.40;75.10
3678;DHT22;1855;50.934;6.958;2022-12-18T13:20:07;-0.50;74.50
3678;DHT22;1855;50.934;6.958;2022-12-18T13:22:36;-0.50;75.00
3678;DHT22;1855;50.934;6.958;2022-12-18T13:25:34;-0.50;75.00
3678;DHT22;1855;50.934;6.958;2022-12-18T13:28:07;-0.50;75.50
3678;DHT22;1855;50.934;6.958;2022-12-18T13:30:46;-0.50;75.10
3678;DHT22;1855;50.934;6.958;2022-12-18T13:33:42;-0.60;74.70
3678;DHT22;1855;50.934;6.958;2022-12-18T13:36:22;-0.60;75.20
3678;DHT22;1855;50.934;6.958;2022-12-18T13:41:53;-0.60;75.20
3678;DHT22;1855;50.934;6.958;2022-12-18T13:44:26;-0.60;75.50
3678;DHT22;1855;50.934;6.958;2022-12-18T13:46:55;-0.60;75.30
3678;DHT22;1855;50.934;6.958;2022-12-18T13:49:23;-0.60;76.60
3678;DHT22;1855;50.934;6.958;2022-12-18T13:51:54;-0.50;75.70
3678;DHT22;1855;50.934;6.958;2022-12-18T13:54:25;-0.50;75.20
3678;DHT22;1855;50.934;6.958;2022-12-18T13:56:55;-0.40;75.40
3678;DHT22;1855;50.934;6.958;2022-12-18T13:59:23;-0.40;75.30
3678;DHT22;1855;50.934;6.958;2022-12-18T14:01:53;-0.50;75.50
3678;DHT22;1855;50.934;6.958;2022-12-18T14:04:23;-0.50;75.70
3678;DHT22;1855;50.934;6.958;2022-12-18T14:06:53;-0.40;76.00
3678;DHT22;1855;50.934;6.958;2022-12-18T14:09:24;-0.50;75.70
3678;DHT22;1855;50.934;6.958;2022-12-18T14:11:52;-0.50;76.00
3678;DHT22;1855;50.934;6.958;2022-12-18T14:14:41;-0.50;76.60
3678;DHT22;1855;50.934;6.958;2022-12-18T14:17:09;-0.50;77.20
3678;DHT22;1855;50.934;6.958;2022-12-18T14:19:37;-0.50;77.70
3678;DHT22;1855;50.934;6.958;2022-12-18T14:22:13;-0.50;77.70
3678;DHT22;1855;50.934;6.958;2022-12-18T14:24:41;-0.50;78.00
3678;DHT22;1855;50.934;6.958;2022-12-18T14:27:17;-0.60;78.20
3678;DHT22;1855;50.934;6.958;2022-12-18T14:29:46;-0.60;78.90
3678;DHT22;1855;50.934;6.958;2022-12-18T14:32:14;-0.60;79.30
3678;DHT22;1855;50.934;6.958;2022-12-18T14:34:42;-0.70;78.80
3678;DHT22;1855;50.934;6.958;2022-12-18T14:37:11;-0.70;79.30
3678;DHT22;1855;50.934;6.958;2022-12-18T14:39:39;-0.70;79.40
3678;DHT22;1855;50.934;6.958;2022-12-18T14:42:10;-0.80;79.50
3678;DHT22;1855;50.934;6.958;2022-12-18T14:44:37;-0.80;80.20
3678;DHT22;1855;50.934;6.958;2022-12-18T14:47:04;-0.80;80.30
3678;DHT22;1855;50.934;6.958;2022-12-18T14:49:32;-0.90;80.30
3678;DHT22;1855;50.934;6.958;2022-12-18T14:52:00;-0.90;80.50
3678;DHT22;1855;50.934;6.958;2022-12-18T14:54:30;-1.00;80.80
3678;DHT22;1855;50.934;6.958;2022-12-18T14:57:01;-1.00;81.10
3678;DHT22;1855;50.934;6.958;2022-12-18T14:59:29;-1.00;81.60
3678;DHT22;1855;50.934;6.958;2022-12-18T15:02:01;-1.00;81.50
3678;DHT22;1855;50.934;6.958;2022-12-18T15:04:30;-1.10;81.30
3678;DHT22;1855;50.934;6.958;2022-12-18T15:07:18;-1.10;81.50
3678;DHT22;1855;50.934;6.958;2022-12-18T15:12:41;-1.10;81.90
3678;DHT22;1855;50.934;6.958;2022-12-18T15:18:12;-1.10;81.40
3678;DHT22;1855;50.934;6.958;2022-12-18T15:20:41;-1.10;81.50
3678;DHT22;1855;50.934;6.958;2022-12-18T15:23:14;-1.20;81.60
3678;DHT22;1855;50.934;6.958;2022-12-18T15:25:41;-1.20;81.80
3678;DHT22;1855;50.934;6.958;2022-12-18T15:28:17;-1.20;81.90
3678;DHT22;1855;50.934;6.958;2022-12-18T15:30:58;-1.20;82.10
3678;DHT22;1855;50.934;6.958;2022-12-18T15:33:27;-1.30;82.90
3678;DHT22;1855;50.934;6.958;2022-12-18T15:35:56;-1.30;82.40
3678;DHT22;1855;50.934;6.958;2022-12-18T15:38:24;-1.30;82.60
3678;DHT22;1855;50.934;6.958;2022-12-18T15:40:52;-1.30;82.80
3678;DHT22;1855;50.934;6.958;2022-12-18T15:43:22;-1.30;83.00
3678;DHT22;1855;50.934;6.958;2022-12-18T15:46:08;-1.30;83.00
3678;DHT22;1855;50.934;6.958;2022-12-18T15:48:38;-1.30;83.10
3678;DHT22;1855;50.934;6.958;2022-12-18T15:51:11;-1.30;83.10
3678;DHT22;1855;50.934;6.958;2022-12-18T15:53:38;-1.30;83.20
3678;DHT22;1855;50.934;6.958;2022-12-18T15:56:07;-1.30;83.40
3678;DHT22;1855;50.934;6.958;2022-12-18T15:58:54;-1.30;83.50
3678;DHT22;1855;50.934;6.958;2022-12-18T16:01:23;-1.40;83.30
3678;DHT22;1855;50.934;6.958;2022-12-18T16:03:50;-1.40;83.70
3678;DHT22;1855;50.934;6.958;2022-12-18T16:06:17;-1.40;83.80
3678;DHT22;1855;50.934;6.958;2022-12-18T16:08:43;-1.40;84.20
3678;DHT22;1855;50.934;6.958;2022-12-18T16:11:20;-1.40;83.90
3678;DHT22;1855;50.934;6.958;2022-12-18T16:14:05;-1.40;84.00
3678;DHT22;1855;50.934;6.958;2022-12-18T16:16:32;-1.40;84.20
3678;DHT22;1855;50.934;6.958;2022-12-18T16:18:59;-1.40;84.40
3678;DHT22;1855;50.934;6.958;2022-12-18T16:21:26;-1.40;84.60
3678;DHT22;1855;50.934;6.958;2022-12-18T16:23:52;-1.40;84.70
3678;DHT22;1855;50.934;6.958;2022-12-18T16:26:19;-1.40;84.90
3678;DHT22;1855;50.934;6.958;2022-12-18T16:28:46;-1.30;84.80
3678;DHT22;1855;50.934;6.958;2022-12-18T16:31:14;-1.30;84.50
3678;DHT22;1855;50.934;6.958;2022-12-18T16:33:41;-1.30;84.70
3678;DHT22;1855;50.934;6.958;2022-12-18T16:36:08;-1.40;84.90
3678;DHT22;1855;50.934;6.958;2022-12-18T16:38:34;-1.40;85.20